Time;durP1;ratioP1;P1;durP2;ratioP2;P2;SDS_P1;SDS_P2;PMS_P1;PMS_P2;Temp;Humidity;BMP_temperature;BMP_pressure;BME280_temperature;BME280_humidity;BME280_pressure;Samples;Min_cycle;Max_cycle;Signal;HPM_P1;HPM_P2
2022/09/29 00:00:06;;;;;;;6.40;2.47;;;;;;;;;;5071535;28;20051;-70
2022/09/29 00:02:32;;;;;;;6.25;2.38;;;;;;;;;;5088151;28;20044;-70
2022/09/29 00:04:58;;;;;;;4.10;1.55;;;;;;;;;;5072837;28;20262;-69
2022/09/29 00:07:24;;;;;;;3.47;1.55;;;;;;;;;;5071579;28;20120;-70
2022/09/29 00:09:50;;;;;;;5.22;2.03;;;;;;;;;;5073888;28;20500;-70
2022/09/29 00:12:16;;;;;;;6.47;2.58;;;;;;;;;;5064815;28;20090;-70
2022/09/29 00:14:42;;;;;;;3.60;2.20;;;;;;;;;;5071754;28;20040;-70
2022/09/29 00:17:08;;;;;;;6.43;1.90;;;;;;;;;;5071438;28;20057;-70
2022/09/29 00:19:34;;;;;;;6.60;2.88;;;;;;;;;;5069815;28;20045;-70
2022/09/29 00:22:00;;;;;;;4.60;2.65;;;;;;;;;;5073959;28;20079;-70
2022/09/29 00:24:26;;;;;;;3.88;3.22;;;;;;;;;;5065381;28;20044;-71
2022/09/29 00:26:54;;;;;;;4.35;2.10;;;;;;;;;;5071899;28;20064;-70
2022/09/29 00:29:20;;;;;;;4.45;1.85;;;;;;;;;;5072951;28;20040;-70
2022/09/29 00:31:46;;;;;;;5.30;2.33;;;;;;;;;;5071160;28;20041;-70
2022/09/29 00:34:13;;;;;;;2.97;2.03;;;;;;;;;;5070784;28;20041;-71
2022/09/29 00:36:40;;;;;;;5.03;2.88;;;;;;;;;;5073416;28;20048;-70
2022/09/29 00:39:06;;;;;;;6.13;2.85;;;;;;;;;;5071717;28;20048;-70
2022/09/29 00:41:34;;;;;;;4.82;3.45;;;;;;;;;;5071288;28;20036;-70
2022/09/29 00:44:05;;;;;;;5.97;3.40;;;;;;;;;;5070303;28;20036;-71
2022/09/29 00:46:45;;;;;;;6.35;3.50;;;;;;;;;;5071149;28;20111;-70
2022/09/29 00:49:11;;;;;;;8.50;3.35;;;;;;;;;;5071353;28;20548;-70
2022/09/29 00:51:38;;;;;;;7.07;3.88;;;;;;;;;;5073078;28;20047;-72
2022/09/29 00:54:06;;;;;;;9.57;4.00;;;;;;;;;;5070577;28;20039;-71
2022/09/29 00:56:33;;;;;;;5.82;3.33;;;;;;;;;;5074801;28;20091;-71
2022/09/29 00:59:01;;;;;;;7.28;4.22;;;;;;;;;;5077820;28;20553;-71
2022/09/29 01:01:29;;;;;;;4.40;2.95;;;;;;;;;;5077433;28;20048;-72
2022/09/29 01:03:57;;;;;;;7.75;4.38;;;;;;;;;;5078513;28;20241;-71
2022/09/29 01:06:29;;;;;;;8.15;3.83;;;;;;;;;;5074035;28;20047;-71
2022/09/29 01:08:56;;;;;;;5.38;3.33;;;;;;;;;;5056732;28;20145;-71
2022/09/29 01:11:23;;;;;;;8.90;3.97;;;;;;;;;;5070809;28;20595;-71
2022/09/29 01:13:49;;;;;;;4.85;3.70;;;;;;;;;;5074778;28;20047;-71
2022/09/29 01:16:16;;;;;;;5.70;3.58;;;;;;;;;;5070993;28;20532;-71
2022/09/29 01:18:43;;;;;;;7.13;4.10;;;;;;;;;;5070747;28;20048;-72
2022/09/29 01:21:28;;;;;;;7.95;4.30;;;;;;;;;;5074957;28;20652;-71
2022/09/29 01:24:01;;;;;;;8.90;4.35;;;;;;;;;;5076469;28;20045;-75
2022/09/29 01:26:27;;;;;;;6.00;3.05;;;;;;;;;;5075237;28;20045;-72
2022/09/29 01:29:06;;;;;;;8.35;3.30;;;;;;;;;;5074828;28;20080;-71
2022/09/29 01:31:32;;;;;;;10.68;3.90;;;;;;;;;;5074533;28;20060;-71
2022/09/29 01:34:04;;;;;;;6.10;3.95;;;;;;;;;;5091435;28;20045;-71
2022/09/29 01:36:30;;;;;;;;;;;;;;;;;;5073042;28;20107;-72
2022/09/29 01:39:02;;;;;;;7.18;3.53;;;;;;;;;;5078139;28;19928;-70
2022/09/29 01:41:28;;;;;;;;;;;;;;;;;;5077646;28;20048;-72
2022/09/29 01:44:00;;;;;;;8.45;3.88;;;;;;;;;;5074613;28;19920;-71
2022/09/29 01:46:47;;;;;;;5.43;3.22;;;;;;;;;;5075614;28;20041;-71
2022/09/29 01:49:14;;;;;;;7.88;4.00;;;;;;;;;;5074121;28;21196;-71
2022/09/29 01:51:43;;;;;;;7.22;3.95;;;;;;;;;;5074837;28;20041;-71
2022/09/29 01:54:12;;;;;;;6.43;3.72;;;;;;;;;;5073991;28;20048;-72
2022/09/29 01:57:04;;;;;;;7.10;4.18;;;;;;;;;;5073987;28;20037;-71
2022/09/29 01:59:38;;;;;;;8.25;3.83;;;;;;;;;;5072899;28;20049;-71
2022/09/29 02:02:07;;;;;;;6.57;3.90;;;;;;;;;;5074806;28;20145;-71
2022/09/29 02:04:36;;;;;;;7.97;3.20;;;;;;;;;;5071387;28;20052;-71
2022/09/29 02:07:06;;;;;;;8.93;3.88;;;;;;;;;;5072327;28;20044;-72
2022/09/29 02:09:35;;;;;;;9.77;3.92;;;;;;;;;;5046911;28;20511;-71
2022/09/29 02:12:03;;;;;;;4.65;3.35;;;;;;;;;;5070710;28;20534;-72
2022/09/29 02:14:32;;;;;;;7.05;3.92;;;;;;;;;;5055070;28;20949;-71
2022/09/29 02:17:04;;;;;;;6.50;3.50;;;;;;;;;;5068585;28;20495;-70
2022/09/29 02:19:33;;;;;;;7.20;3.20;;;;;;;;;;5068657;28;20052;-71
2022/09/29 02:21:59;;;;;;;5.30;3.30;;;;;;;;;;5053563;28;20072;-71
2022/09/29 02:24:25;;;;;;;5.22;3.35;;;;;;;;;;5072024;28;20617;-71
2022/09/29 02:26:51;;;;;;;3.78;3.38;;;;;;;;;;5072991;28;20036;-71
2022/09/29 02:29:18;;;;;;;5.30;3.20;;;;;;;;;;5070727;28;20099;-72
2022/09/29 02:31:45;;;;;;;8.00;3.63;;;;;;;;;;5072061;28;20043;-70
2022/09/29 02:34:12;;;;;;;7.78;3.33;;;;;;;;;;5070705;28;21438;-71
2022/09/29 02:36:39;;;;;;;11.77;3.50;;;;;;;;;;5071714;28;20041;-72
2022/09/29 02:39:21;;;;;;;6.03;3.30;;;;;;;;;;5067178;28;20050;-71
2022/09/29 02:42:05;;;;;;;7.38;3.28;;;;;;;;;;5090049;28;20614;-71
2022/09/29 02:44:31;;;;;;;9.48;4.18;;;;;;;;;;5077183;28;20049;-70
2022/09/29 02:47:17;;;;;;;5.90;3.22;;;;;;;;;;5072007;28;20418;-70
2022/09/29 02:49:50;;;;;;;7.65;4.63;;;;;;;;;;5009031;28;20095;-71
2022/09/29 02:52:19;;;;;;;8.60;3.40;;;;;;;;;;5073206;28;20047;-71
2022/09/29 02:55:04;;;;;;;6.25;2.90;;;;;;;;;;5069714;28;21203;-70
2022/09/29 02:57:45;;;;;;;4.70;2.60;;;;;;;;;;5068245;28;20047;-71
2022/09/29 03:00:13;;;;;;;4.65;3.30;;;;;;;;;;5073164;28;20150;-71
2022/09/29 03:02:41;;;;;;;7.97;3.53;;;;;;;;;;5047744;28;20039;-70
2022/09/29 03:05:09;;;;;;;5.53;3.15;;;;;;;;;;5070418;28;20048;-71
2022/09/29 03:07:36;;;;;;;3.75;2.38;;;;;;;;;;5073171;28;20044;-71
2022/09/29 03:10:02;;;;;;;5.40;2.55;;;;;;;;;;5072461;28;20051;-71
2022/09/29 03:12:29;;;;;;;6.35;3.00;;;;;;;;;;5070330;28;20048;-71
2022/09/29 03:14:55;;;;;;;7.05;2.80;;;;;;;;;;5072264;28;20040;-69
2022/09/29 03:17:21;;;;;;;5.93;2.88;;;;;;;;;;5070740;28;20045;-71
2022/09/29 03:19:48;;;;;;;5.40;2.75;;;;;;;;;;5070326;28;20045;-71
2022/09/29 03:22:14;;;;;;;5.80;3.53;;;;;;;;;;5065877;28;20038;-71
2022/09/29 03:24:40;;;;;;;7.18;3.22;;;;;;;;;;5067370;28;20043;-71
2022/09/29 03:27:08;;;;;;;6.05;2.90;;;;;;;;;;5070499;28;20477;-71
2022/09/29 03:29:34;;;;;;;7.32;2.78;;;;;;;;;;5070072;28;20161;-70
2022/09/29 03:32:01;;;;;;;7.28;3.67;;;;;;;;;;5067148;28;20542;-71
2022/09/29 03:34:27;;;;;;;4.15;2.72;;;;;;;;;;5071827;28;20787;-71
2022/09/29 03:36:53;;;;;;;6.32;2.42;;;;;;;;;;5070974;28;21413;-71
2022/09/29 03:39:20;;;;;;;4.22;2.40;;;;;;;;;;5074829;28;20948;-71
2022/09/29 03:41:46;;;;;;;6.32;2.30;;;;;;;;;;5070649;28;20037;-71
2022/09/29 03:44:12;;;;;;;4.32;2.05;;;;;;;;;;5073716;28;20048;-71
2022/09/29 03:46:38;;;;;;;3.53;2.50;;;;;;;;;;5073302;28;20079;-71
2022/09/29 03:49:04;;;;;;;6.72;2.50;;;;;;;;;;5073908;28;20080;-70
2022/09/29 03:51:31;;;;;;;5.68;2.20;;;;;;;;;;5072457;28;20484;-71
2022/09/29 03:53:57;;;;;;;3.38;1.85;;;;;;;;;;5074782;28;20029;-71
2022/09/29 03:56:23;;;;;;;3.42;2.08;;;;;;;;;;5071576;28;20052;-71
2022/09/29 03:58:49;;;;;;;4.10;2.72;;;;;;;;;;5073998;28;20041;-71
2022/09/29 04:01:15;;;;;;;5.20;2.83;;;;;;;;;;5073629;28;20075;-71
2022/09/29 04:03:41;;;;;;;5.00;3.00;;;;;;;;;;5074530;28;20126;-71
2022/09/29 04:06:07;;;;;;;12.60;5.18;;;;;;;;;;5072203;28;20049;-71
2022/09/29 04:08:36;;;;;;;10.30;5.03;;;;;;;;;;5070394;28;20415;-70
2022/09/29 04:11:02;;;;;;;10.77;3.75;;;;;;;;;;5073549;28;20053;-72
2022/09/29 04:13:28;;;;;;;3.63;2.40;;;;;;;;;;5072228;28;20040;-72
2022/09/29 04:16:00;;;;;;;11.27;4.18;;;;;;;;;;5072525;28;20071;-72
2022/09/29 04:18:27;;;;;;;;;;;;;;;;;;5070505;28;20056;-71
2022/09/29 04:20:53;;;;;;;6.00;2.60;;;;;;;;;;5070712;28;20515;-72
2022/09/29 04:23:19;;;;;;;7.28;2.13;;;;;;;;;;5068857;28;20049;-71
2022/09/29 04:25:46;;;;;;;4.93;2.60;;;;;;;;;;5061864;28;20079;-72
2022/09/29 04:28:12;;;;;;;5.53;2.33;;;;;;;;;;5053807;28;20481;-71
2022/09/29 04:30:38;;;;;;;13.63;4.68;;;;;;;;;;5060295;28;20646;-71
2022/09/29 04:33:04;;;;;;;12.68;5.50;;;;;;;;;;5061850;28;20041;-71
2022/09/29 04:35:31;;;;;;;6.90;2.95;;;;;;;;;;5060611;28;20099;-71
2022/09/29 04:37:58;;;;;;;7.25;2.72;;;;;;;;;;5047196;28;20126;-72
2022/09/29 04:40:24;;;;;;;7.47;3.40;;;;;;;;;;5061662;28;20120;-71
2022/09/29 04:42:50;;;;;;;7.63;2.40;;;;;;;;;;5060109;28;20048;-72
2022/09/29 04:45:16;;;;;;;2.97;2.17;;;;;;;;;;5060492;28;20042;-72
2022/09/29 04:47:42;;;;;;;7.85;3.15;;;;;;;;;;5047903;28;20041;-71
2022/09/29 04:50:08;;;;;;;3.58;2.28;;;;;;;;;;5045892;28;20049;-75
2022/09/29 04:52:35;;;;;;;6.55;2.55;;;;;;;;;;5047637;28;20830;-72
2022/09/29 04:55:02;;;;;;;7.20;3.00;;;;;;;;;;5045873;28;20038;-71
2022/09/29 04:57:28;;;;;;;6.47;2.58;;;;;;;;;;5049708;28;20041;-71
2022/09/29 04:59:54;;;;;;;4.78;1.98;;;;;;;;;;5047363;28;20161;-76
2022/09/29 05:02:21;;;;;;;6.63;2.33;;;;;;;;;;5049937;28;20424;-71
2022/09/29 05:04:47;;;;;;;3.83;2.20;;;;;;;;;;5046775;28;20386;-70
2022/09/29 05:07:14;;;;;;;4.40;3.10;;;;;;;;;;5060047;28;20521;-70
2022/09/29 05:09:40;;;;;;;4.15;2.20;;;;;;;;;;5061367;28;20037;-70
2022/09/29 05:12:06;;;;;;;4.30;3.00;;;;;;;;;;5051309;28;20045;-70
2022/09/29 05:14:33;;;;;;;5.50;2.35;;;;;;;;;;5045461;28;20041;-70
2022/09/29 05:16:59;;;;;;;5.10;2.65;;;;;;;;;;5059066;28;20049;-71
2022/09/29 05:19:26;;;;;;;6.57;2.83;;;;;;;;;;5062489;28;20064;-71
2022/09/29 05:21:52;;;;;;;7.00;2.20;;;;;;;;;;5062817;28;20041;-70
2022/09/29 05:24:19;;;;;;;5.20;3.70;;;;;;;;;;5073453;28;20098;-71
2022/09/29 05:26:45;;;;;;;6.30;2.22;;;;;;;;;;5072571;28;20041;-71
2022/09/29 05:29:11;;;;;;;10.77;2.50;;;;;;;;;;5073380;28;20151;-70
2022/09/29 05:31:37;;;;;;;5.90;2.47;;;;;;;;;;5071836;28;20091;-71
2022/09/29 05:34:03;;;;;;;9.77;4.43;;;;;;;;;;5071281;28;20035;-71
2022/09/29 05:36:29;;;;;;;9.20;4.70;;;;;;;;;;5071466;28;20040;-70
2022/09/29 05:38:55;;;;;;;15.07;8.30;;;;;;;;;;5063690;28;20522;-70
2022/09/29 05:41:22;;;;;;;9.85;5.15;;;;;;;;;;5072775;28;20218;-72
2022/09/29 05:43:52;;;;;;;11.75;4.20;;;;;;;;;;5048667;28;20170;-72
2022/09/29 05:46:18;;;;;;;5.03;2.47;;;;;;;;;;5063574;28;20048;-70
2022/09/29 05:48:48;;;;;;;9.05;3.30;;;;;;;;;;5071118;28;20040;-70
2022/09/29 05:51:16;;;;;;;6.93;2.90;;;;;;;;;;5071032;28;20041;-71
2022/09/29 05:53:42;;;;;;;8.82;3.00;;;;;;;;;;5072572;28;20081;-71
2022/09/29 05:56:09;;;;;;;7.22;4.03;;;;;;;;;;5071985;28;20048;-71
2022/09/29 05:58:36;;;;;;;10.20;3.80;;;;;;;;;;5073344;28;20037;-71
2022/09/29 06:01:09;;;;;;;6.28;4.03;;;;;;;;;;5073756;28;20056;-71
2022/09/29 06:03:36;;;;;;;10.32;4.45;;;;;;;;;;5074975;28;20092;-71
2022/09/29 06:06:10;;;;;;;14.27;7.72;;;;;;;;;;5061592;28;20517;-71
2022/09/29 06:08:36;;;;;;;5.32;3.30;;;;;;;;;;5050140;28;20250;-71
2022/09/29 06:11:04;;;;;;;4.15;2.47;;;;;;;;;;5071431;28;20112;-71
2022/09/29 06:13:30;;;;;;;3.63;1.98;;;;;;;;;;5070091;28;20051;-71
2022/09/29 06:15:57;;;;;;;10.95;3.15;;;;;;;;;;5070732;28;20053;-72
2022/09/29 06:18:24;;;;;;;4.47;2.10;;;;;;;;;;5065976;28;20060;-71
2022/09/29 06:20:50;;;;;;;5.35;2.17;;;;;;;;;;5075147;28;20064;-71
2022/09/29 06:23:16;;;;;;;6.55;2.60;;;;;;;;;;5073073;28;20087;-71
2022/09/29 06:25:42;;;;;;;6.32;2.70;;;;;;;;;;5072727;28;20051;-70
2022/09/29 06:28:08;;;;;;;4.10;2.30;;;;;;;;;;5072532;28;20075;-71
2022/09/29 06:30:34;;;;;;;4.28;2.35;;;;;;;;;;5070326;28;20798;-71
2022/09/29 06:33:01;;;;;;;7.95;3.78;;;;;;;;;;5069764;28;20367;-71
2022/09/29 06:38:12;;;;;;;7.15;2.45;;;;;;;;;;5070855;28;21277;-71
2022/09/29 06:40:38;;;;;;;4.43;1.95;;;;;;;;;;5071109;28;20044;-70
2022/09/29 06:43:04;;;;;;;5.95;2.35;;;;;;;;;;5070474;28;20195;-71
2022/09/29 06:45:32;;;;;;;5.25;2.65;;;;;;;;;;5071307;28;20049;-79
2022/09/29 06:47:59;;;;;;;7.88;2.85;;;;;;;;;;5072734;28;20177;-71
2022/09/29 06:50:25;;;;;;;5.45;3.10;;;;;;;;;;5066022;28;20037;-71
2022/09/29 06:52:51;;;;;;;5.35;3.60;;;;;;;;;;5070223;28;20079;-72
2022/09/29 06:55:17;;;;;;;3.15;2.08;;;;;;;;;;5074746;28;20244;-72
2022/09/29 06:57:44;;;;;;;7.65;2.50;;;;;;;;;;5074640;28;20051;-72
2022/09/29 07:00:10;;;;;;;11.30;3.97;;;;;;;;;;5074904;28;20049;-71
2022/09/29 07:02:37;;;;;;;3.03;2.08;;;;;;;;;;5075201;28;20036;-72
2022/09/29 07:05:03;;;;;;;7.97;4.85;;;;;;;;;;5074444;28;20127;-72
2022/09/29 07:07:29;;;;;;;3.60;2.60;;;;;;;;;;5074867;28;20045;-71
2022/09/29 07:09:55;;;;;;;4.47;3.40;;;;;;;;;;5072463;28;20037;-71
2022/09/29 07:12:22;;;;;;;6.25;3.55;;;;;;;;;;5075614;28;20064;-71
2022/09/29 07:14:48;;;;;;;6.40;3.13;;;;;;;;;;5073780;28;20575;-71
2022/09/29 07:17:14;;;;;;;3.60;3.00;;;;;;;;;;5065533;28;20652;-73
2022/09/29 07:19:40;;;;;;;8.18;3.95;;;;;;;;;;5075878;28;20040;-71
2022/09/29 07:22:08;;;;;;;11.65;4.82;;;;;;;;;;5073394;28;20082;-72
2022/09/29 07:24:34;;;;;;;12.32;6.97;;;;;;;;;;5074811;28;20041;-71
2022/09/29 07:27:00;;;;;;;8.95;5.00;;;;;;;;;;5072900;28;20040;-72
2022/09/29 07:29:31;;;;;;;7.88;4.10;;;;;;;;;;5073524;28;20056;-72
2022/09/29 07:31:57;;;;;;;9.77;4.20;;;;;;;;;;5072791;28;20087;-71
2022/09/29 07:34:23;;;;;;;5.60;3.13;;;;;;;;;;5074860;28;20190;-71
2022/09/29 07:36:50;;;;;;;7.82;4.35;;;;;;;;;;5073946;28;20037;-71
2022/09/29 07:39:16;;;;;;;9.27;6.10;;;;;;;;;;5074556;28;20040;-72
2022/09/29 07:41:42;;;;;;;3.50;2.35;;;;;;;;;;5072353;28;20330;-72
2022/09/29 07:44:08;;;;;;;9.27;2.65;;;;;;;;;;5073714;28;20349;-71
2022/09/29 07:46:35;;;;;;;5.40;2.13;;;;;;;;;;5073464;28;20048;-72
2022/09/29 07:49:01;;;;;;;18.52;8.40;;;;;;;;;;5072889;28;20040;-72
2022/09/29 07:51:27;;;;;;;10.95;3.40;;;;;;;;;;5073326;28;20044;-71
2022/09/29 07:53:53;;;;;;;5.97;2.30;;;;;;;;;;5073127;28;20053;-72
2022/09/29 07:56:21;;;;;;;11.35;4.55;;;;;;;;;;5074763;28;20041;-71
2022/09/29 07:58:48;;;;;;;6.00;4.03;;;;;;;;;;5072345;28;20460;-72
2022/09/29 08:01:15;;;;;;;4.75;2.83;;;;;;;;;;5075105;28;20135;-72
2022/09/29 08:03:42;;;;;;;5.63;2.83;;;;;;;;;;5074041;28;20169;-72
2022/09/29 08:06:08;;;;;;;7.75;3.50;;;;;;;;;;5072310;28;20071;-72
2022/09/29 08:08:35;;;;;;;21.83;9.73;;;;;;;;;;5072855;28;20037;-72
2022/09/29 08:11:02;;;;;;;22.40;12.40;;;;;;;;;;5074775;28;20033;-72
2022/09/29 08:13:30;;;;;;;9.27;3.60;;;;;;;;;;5065483;28;20617;-71
2022/09/29 08:15:59;;;;;;;7.55;3.00;;;;;;;;;;5073430;28;20056;-71
2022/09/29 08:18:26;;;;;;;9.88;2.97;;;;;;;;;;5073162;28;20048;-71
2022/09/29 08:20:53;;;;;;;15.15;6.13;;;;;;;;;;5072998;28;20679;-72
2022/09/29 08:23:19;;;;;;;11.40;6.82;;;;;;;;;;5073704;28;20051;-72
2022/09/29 08:25:45;;;;;;;6.22;3.03;;;;;;;;;;5073749;28;20492;-72
2022/09/29 08:28:11;;;;;;;4.13;2.05;;;;;;;;;;5073430;28;20056;-71
2022/09/29 08:30:37;;;;;;;4.63;1.98;;;;;;;;;;5073601;28;20541;-73
2022/09/29 08:33:07;;;;;;;14.25;6.10;;;;;;;;;;5074554;28;20045;-71
2022/09/29 08:35:33;;;;;;;5.60;2.28;;;;;;;;;;5071729;28;20617;-72
2022/09/29 08:37:59;;;;;;;4.53;2.20;;;;;;;;;;5074446;28;20148;-72
2022/09/29 08:40:29;;;;;;;10.75;2.53;;;;;;;;;;5072465;28;20045;-72
2022/09/29 08:43:14;;;;;;;5.40;2.20;;;;;;;;;;5072872;28;20040;-72
2022/09/29 08:45:43;;;;;;;2.33;1.60;;;;;;;;;;5070964;28;20151;-72
2022/09/29 08:48:12;;;;;;;5.75;2.17;;;;;;;;;;5071703;28;20037;-72
2022/09/29 08:50:43;;;;;;;3.03;1.48;;;;;;;;;;5072683;28;20604;-69
2022/09/29 08:53:11;;;;;;;3.37;1.40;;;;;;;;;;5071444;28;20052;-69
2022/09/29 08:55:43;;;;;;;3.97;1.90;;;;;;;;;;5070449;28;20047;-69
2022/09/29 08:58:12;;;;;;;1.95;1.35;;;;;;;;;;5068994;28;20820;-70
2022/09/29 09:00:42;;;;;;;2.97;2.17;;;;;;;;;;5070878;28;20060;-70
2022/09/29 09:03:31;;;;;;;3.88;1.67;;;;;;;;;;5071865;28;20201;-69
2022/09/29 09:06:23;;;;;;;3.15;1.80;;;;;;;;;;5071556;28;20132;-69
2022/09/29 09:08:58;;;;;;;2.63;1.65;;;;;;;;;;5050680;28;20140;-70
2022/09/29 09:11:27;;;;;;;6.05;2.35;;;;;;;;;;5070979;28;20045;-69
2022/09/29 09:13:54;;;;;;;5.18;1.63;;;;;;;;;;5064231;28;20040;-70
2022/09/29 09:16:40;;;;;;;3.15;1.50;;;;;;;;;;5072637;28;20522;-71
2022/09/29 09:19:07;;;;;;;5.72;1.80;;;;;;;;;;5068019;28;20072;-72
2022/09/29 09:21:43;;;;;;;5.65;1.90;;;;;;;;;;5074709;28;20044;-72
2022/09/29 09:24:15;;;;;;;3.50;1.65;;;;;;;;;;5076029;28;20067;-71
2022/09/29 09:26:42;;;;;;;4.32;1.58;;;;;;;;;;5075995;28;20040;-72
2022/09/29 09:29:28;;;;;;;3.80;1.52;;;;;;;;;;5077180;28;20752;-72
2022/09/29 09:31:59;;;;;;;11.35;3.20;;;;;;;;;;5074747;28;21729;-71
2022/09/29 09:34:34;;;;;;;7.00;2.42;;;;;;;;;;5076154;28;20102;-71
2022/09/29 09:37:06;;;;;;;4.32;1.88;;;;;;;;;;5056061;28;20045;-72
2022/09/29 09:39:37;;;;;;;4.70;2.50;;;;;;;;;;5075858;28;20079;-71
2022/09/29 09:42:08;;;;;;;3.80;3.03;;;;;;;;;;5076262;28;20544;-73
2022/09/29 09:44:38;;;;;;;4.82;1.63;;;;;;;;;;5077952;28;20872;-69
2022/09/29 09:47:10;;;;;;;7.20;3.10;;;;;;;;;;5076372;28;20542;-70
2022/09/29 09:49:40;;;;;;;8.70;2.15;;;;;;;;;;5074364;28;20063;-70
2022/09/29 09:52:14;;;;;;;4.15;1.70;;;;;;;;;;5077149;28;20059;-69
2022/09/29 09:55:00;;;;;;;3.28;2.15;;;;;;;;;;5074968;28;20089;-69
2022/09/29 09:57:47;;;;;;;7.15;1.75;;;;;;;;;;5066847;28;20117;-69
2022/09/29 10:00:15;;;;;;;2.00;1.20;;;;;;;;;;5075704;28;20471;-70
2022/09/29 10:02:45;;;;;;;2.50;1.65;;;;;;;;;;5076915;28;20040;-69
2022/09/29 10:05:13;;;;;;;2.47;1.50;;;;;;;;;;5073477;28;20092;-69
2022/09/29 10:07:39;;;;;;;2.97;1.60;;;;;;;;;;5076359;28;20133;-69
2022/09/29 10:10:12;;;;;;;8.07;1.55;;;;;;;;;;5075766;28;20127;-72
2022/09/29 10:12:38;;;;;;;2.92;1.33;;;;;;;;;;5073763;28;20530;-69
2022/09/29 10:15:12;;;;;;;3.72;1.38;;;;;;;;;;5076141;28;20061;-70
2022/09/29 10:17:41;;;;;;;3.92;2.22;;;;;;;;;;5075534;28;20045;-70
2022/09/29 10:20:08;;;;;;;2.58;1.70;;;;;;;;;;5074288;28;20064;-70
2022/09/29 10:22:34;;;;;;;5.68;2.45;;;;;;;;;;5076244;28;20040;-70
2022/09/29 10:25:20;;;;;;;3.28;1.50;;;;;;;;;;5072690;28;20076;-70
2022/09/29 10:27:49;;;;;;;4.38;1.55;;;;;;;;;;5075653;28;20462;-70
2022/09/29 10:30:19;;;;;;;2.70;1.40;;;;;;;;;;5075849;28;20040;-71
2022/09/29 10:32:46;;;;;;;2.72;1.30;;;;;;;;;;5077374;28;20044;-71
2022/09/29 10:35:15;;;;;;;4.55;1.60;;;;;;;;;;5074630;28;20131;-70
2022/09/29 10:37:42;;;;;;;3.83;1.80;;;;;;;;;;5072889;28;20147;-70
2022/09/29 10:40:09;;;;;;;3.33;1.45;;;;;;;;;;5073347;28;20045;-70
2022/09/29 10:42:36;;;;;;;6.25;1.92;;;;;;;;;;5077168;28;20115;-71
2022/09/29 10:45:20;;;;;;;4.93;1.70;;;;;;;;;;5074416;28;20045;-71
2022/09/29 10:48:06;;;;;;;4.90;2.83;;;;;;;;;;5076533;28;20145;-71
2022/09/29 10:50:53;;;;;;;4.63;1.60;;;;;;;;;;5076611;28;20525;-70
2022/09/29 10:53:39;;;;;;;14.30;2.25;;;;;;;;;;5071732;28;20051;-70
2022/09/29 10:56:28;;;;;;;5.50;1.95;;;;;;;;;;5076096;28;20523;-70
2022/09/29 10:58:57;;;;;;;4.03;1.75;;;;;;;;;;5076756;28;20033;-70
2022/09/29 11:01:25;;;;;;;2.55;1.80;;;;;;;;;;5075718;28;20063;-70
2022/09/29 11:04:11;;;;;;;2.95;1.67;;;;;;;;;;5074693;28;20075;-70
2022/09/29 11:06:39;;;;;;;3.25;1.92;;;;;;;;;;5062826;28;20102;-70
2022/09/29 11:09:06;;;;;;;4.10;2.38;;;;;;;;;;5070511;28;20068;-70
2022/09/29 11:11:32;;;;;;;2.22;1.50;;;;;;;;;;5076639;28;20040;-70
2022/09/29 11:13:59;;;;;;;3.50;1.38;;;;;;;;;;5075313;28;20041;-70
2022/09/29 11:16:31;;;;;;;4.60;1.70;;;;;;;;;;5075851;28;20106;-70
2022/09/29 11:19:02;;;;;;;6.30;2.75;;;;;;;;;;5068082;28;20448;-69
2022/09/29 11:21:39;;;;;;;6.43;3.40;;;;;;;;;;5071906;28;20044;-70
2022/09/29 11:24:20;;;;;;;6.43;2.47;;;;;;;;;;5076440;28;20052;-70
2022/09/29 11:26:49;;;;;;;4.43;2.10;;;;;;;;;;5074523;28;20818;-70
2022/09/29 11:29:34;;;;;;;3.20;1.73;;;;;;;;;;5075811;28;20927;-70
2022/09/29 11:32:03;;;;;;;5.15;1.92;;;;;;;;;;5073026;28;20098;-70
2022/09/29 11:34:36;;;;;;;3.40;1.73;;;;;;;;;;5072786;28;20040;-70
2022/09/29 11:37:06;;;;;;;4.18;1.58;;;;;;;;;;5074016;28;20605;-70
2022/09/29 11:39:46;;;;;;;4.63;1.65;;;;;;;;;;5073864;28;20544;-70
2022/09/29 11:42:22;;;;;;;2.78;1.70;;;;;;;;;;5073127;28;20124;-70
2022/09/29 11:45:02;;;;;;;4.25;1.50;;;;;;;;;;5074267;28;20403;-69
2022/09/29 11:47:39;;;;;;;4.45;1.75;;;;;;;;;;5072624;28;20444;-69
2022/09/29 11:50:31;;;;;;;4.18;1.50;;;;;;;;;;5075120;28;20040;-70
2022/09/29 11:53:05;;;;;;;3.95;1.83;;;;;;;;;;5069246;28;20036;-71
2022/09/29 11:55:51;;;;;;;4.38;1.70;;;;;;;;;;5075832;28;20041;-70
2022/09/29 11:58:39;;;;;;;4.00;1.73;;;;;;;;;;5062225;28;20577;-70
2022/09/29 12:01:12;;;;;;;3.80;1.30;;;;;;;;;;5057511;28;20056;-70
2022/09/29 12:03:57;;;;;;;3.70;1.52;;;;;;;;;;5055961;28;20068;-70
2022/09/29 12:06:35;;;;;;;4.00;2.10;;;;;;;;;;5073660;28;20044;-70
2022/09/29 12:09:19;;;;;;;3.13;1.30;;;;;;;;;;5072298;28;20040;-70
2022/09/29 12:12:04;;;;;;;2.60;1.02;;;;;;;;;;5072474;28;20553;-70
2022/09/29 12:14:36;;;;;;;3.78;1.20;;;;;;;;;;5070672;28;20036;-70
2022/09/29 12:17:09;;;;;;;7.60;1.70;;;;;;;;;;5069082;28;20071;-70
2022/09/29 12:19:38;;;;;;;1.92;1.23;;;;;;;;;;5072857;28;20056;-69
2022/09/29 12:22:08;;;;;;;2.17;1.00;;;;;;;;;;5072558;28;20037;-71
2022/09/29 12:24:42;;;;;;;3.47;1.20;;;;;;;;;;5074473;28;20120;-70
2022/09/29 12:27:25;;;;;;;2.30;1.02;;;;;;;;;;5074184;28;20063;-70
2022/09/29 12:30:01;;;;;;;2.55;1.00;;;;;;;;;;5073616;28;20044;-71
2022/09/29 12:33:05;;;;;;;2.63;1.23;;;;;;;;;;5071984;28;20143;-70
2022/09/29 12:35:35;;;;;;;3.85;1.08;;;;;;;;;;5003615;28;20063;-70
2022/09/29 12:38:20;;;;;;;1.30;0.90;;;;;;;;;;5049933;28;20041;-70
2022/09/29 12:41:02;;;;;;;3.03;1.40;;;;;;;;;;5075089;28;20044;-70
2022/09/29 12:43:31;;;;;;;1.25;0.90;;;;;;;;;;5073042;28;20044;-70
2022/09/29 12:46:13;;;;;;;2.25;0.80;;;;;;;;;;5075223;28;20037;-69
2022/09/29 12:48:39;;;;;;;5.35;1.20;;;;;;;;;;5064771;28;20064;-70
2022/09/29 12:51:32;;;;;;;2.30;1.13;;;;;;;;;;5076393;28;20083;-69
2022/09/29 12:54:07;;;;;;;1.70;0.90;;;;;;;;;;5059708;28;20048;-69
2022/09/29 12:56:36;;;;;;;1.98;0.90;;;;;;;;;;5081155;28;20206;-70
2022/09/29 12:59:05;;;;;;;2.92;1.15;;;;;;;;;;5078412;28;20723;-69
2022/09/29 13:01:36;;;;;;;2.70;1.50;;;;;;;;;;5078716;28;20521;-70
2022/09/29 13:04:05;;;;;;;3.22;1.10;;;;;;;;;;5079622;28;20037;-69
2022/09/29 13:06:43;;;;;;;1.25;0.80;;;;;;;;;;5078212;28;20048;-70
2022/09/29 13:09:32;;;;;;;2.67;0.85;;;;;;;;;;5081317;28;20055;-69
2022/09/29 13:12:11;;;;;;;2.78;0.98;;;;;;;;;;5070751;28;20052;-70
2022/09/29 13:14:56;;;;;;;1.92;1.15;;;;;;;;;;5081003;28;20613;-71
2022/09/29 13:17:28;;;;;;;2.83;0.90;;;;;;;;;;5080148;28;20048;-72
2022/09/29 13:20:10;;;;;;;1.33;0.90;;;;;;;;;;5078205;28;20128;-71
2022/09/29 13:22:51;;;;;;;1.60;0.90;;;;;;;;;;5080636;28;20049;-70
2022/09/29 13:25:27;;;;;;;4.80;0.90;;;;;;;;;;5080047;28;20105;-70
2022/09/29 13:27:54;;;;;;;4.68;1.90;;;;;;;;;;5080845;28;20036;-75
2022/09/29 13:30:32;;;;;;;3.78;1.38;;;;;;;;;;5079084;28;20044;-74
2022/09/29 13:33:15;;;;;;;4.63;1.10;;;;;;;;;;5078067;28;20072;-72
2022/09/29 13:35:47;;;;;;;1.95;0.77;;;;;;;;;;5079741;28;20111;-73
2022/09/29 13:38:21;;;;;;;2.85;1.10;;;;;;;;;;5076644;28;20120;-73
2022/09/29 13:41:06;;;;;;;2.88;1.02;;;;;;;;;;5078501;28;20235;-72
2022/09/29 13:43:48;;;;;;;2.88;0.98;;;;;;;;;;5079060;28;20052;-72
2022/09/29 13:46:26;;;;;;;2.83;1.00;;;;;;;;;;5078356;28;20048;-74
2022/09/29 13:48:54;;;;;;;2.08;1.08;;;;;;;;;;5076900;28;20040;-69
2022/09/29 13:51:25;;;;;;;3.65;1.13;;;;;;;;;;5078589;28;20040;-70
2022/09/29 13:54:10;;;;;;;1.75;1.13;;;;;;;;;;5078346;28;20044;-76
2022/09/29 13:56:37;;;;;;;4.43;1.95;;;;;;;;;;5078594;28;20044;-69
2022/09/29 13:59:04;;;;;;;2.50;1.30;;;;;;;;;;5079710;28;20041;-70
2022/09/29 14:01:37;;;;;;;2.53;1.13;;;;;;;;;;5078813;28;20131;-70
2022/09/29 14:04:22;;;;;;;1.70;1.15;;;;;;;;;;5075770;28;20051;-69
2022/09/29 14:06:48;;;;;;;1.73;0.98;;;;;;;;;;5072408;28;20136;-69
2022/09/29 14:09:16;;;;;;;5.97;1.20;;;;;;;;;;5058652;28;20543;-69
2022/09/29 14:11:44;;;;;;;6.47;1.30;;;;;;;;;;5077903;28;20120;-69
2022/09/29 14:14:13;;;;;;;1.45;1.35;;;;;;;;;;5075040;28;20084;-69
2022/09/29 14:16:45;;;;;;;1.80;0.95;;;;;;;;;;5075644;28;20083;-69
2022/09/29 14:19:30;;;;;;;1.15;1.05;;;;;;;;;;5075633;28;20118;-69
2022/09/29 14:21:57;;;;;;;2.22;1.15;;;;;;;;;;5075650;28;20533;-70
2022/09/29 14:24:35;;;;;;;3.20;1.08;;;;;;;;;;5072980;28;20037;-69
2022/09/29 14:27:14;;;;;;;1.70;1.00;;;;;;;;;;5067000;28;20075;-69
2022/09/29 14:29:47;;;;;;;5.47;1.40;;;;;;;;;;5075686;28;20522;-70
2022/09/29 14:32:22;;;;;;;4.15;1.65;;;;;;;;;;5074729;28;20066;-69
2022/09/29 14:34:52;;;;;;;3.30;1.10;;;;;;;;;;5065947;28;20044;-74
2022/09/29 14:37:20;;;;;;;3.08;1.55;;;;;;;;;;5069346;28;20045;-69
2022/09/29 14:40:26;;;;;;;1.95;1.27;;;;;;;;;;5067772;28;20041;-69
2022/09/29 14:42:32;;;;;;;6.13;2.60;;;;;;;;;;5069973;28;20573;-69
2022/09/29 14:53:19;;;;;;;3.03;1.20;;;;;;;;;;5070606;28;20053;-69
2022/09/29 14:55:58;;;;;;;2.72;1.35;;;;;;;;;;5067838;28;20055;-69
2022/09/29 14:58:30;;;;;;;1.40;0.95;;;;;;;;;;5083098;28;20090;-69
2022/09/29 15:01:02;;;;;;;1.35;0.95;;;;;;;;;;5070709;28;20033;-70
2022/09/29 15:03:28;;;;;;;;;;;;;;;;;;5069958;28;20048;-69
2022/09/29 15:06:09;;;;;;;2.33;1.02;;;;;;;;;;5071766;28;20418;-69
2022/09/29 15:08:36;;;;;;;1.42;0.80;;;;;;;;;;5067115;28;20052;-69
2022/09/29 15:11:06;;;;;;;3.08;1.17;;;;;;;;;;5070575;28;20037;-69
2022/09/29 15:13:33;;;;;;;7.38;1.08;;;;;;;;;;5065538;28;20041;-69